Pagina principale
METAR-TAF:

METAR-TAF

Aeroporti :

Wiener Neustadt, Austria

latitudine: 47-50-36N, longitudine: 016-15-29E, altezza: 272 m

Osservazione

Il bollettino è stato emesso 51 minuti fa, alle 15:00 UTC
Vento 4 kt da sud-ovest
Temperature
Pressione

METAR: LOAN 091500Z 22004KT 25KM FEW015ST BKN035SC

Ora: 16:51 (15:51 UTC)

Previsione

Il bollettino è stato emesso 3 ore e 32 minuti fa, alle 12:19 UTC
Previsione valida dal 09 alle 12 UTC al 09 alle 21 UTC
Vento 5 kt da est/sud-est
Visibilità 10 km o più
Poco nuvoloso ad un'altezza di 500 ft
Nuvoloso ad un'altezza di 5000 ft
Temporaneamente
dal 09 alle 12 UTC al 09 alle 16 UTC
Visibilità: 4000 m
Nubi sparse ad un'altezza di 2000 ft
Nuvoloso ad un'altezza di 4000 ft
rovesci di pioggia

TAF: LOAN 091219Z 0912/0921 12005KT 9999 FEW005 BKN050 TEMPO 0912/0916 4000 SHRA SCT020 BKN040

Osservazioni e previsioni meteorologiche di più di 4000 aeroporti (messaggi METAR e TAF).

Le stazioni disponibili sono rappresentate dai dischi gialli e rossi sulla carta.

Puntare il mouse per vedere il nome della stazione.

Clicca sopra per visualizzare le osservazioni e previsioni meteorologiche.

Per cambiare la mappa : fare clic sui pulsanti verdi con una croce nera per ingrandire, il pulsante verde con un trattino per diminuire, o sulla freccia verde per le mappe adiacenti.


METAR-TAF: